createdAt,value
2018-10-09T00:00:23.430Z,12.82
2018-10-09T00:02:51.372Z,12.77
2018-10-09T00:05:18.315Z,12.74
2018-10-09T00:07:46.257Z,12.84
2018-10-09T00:10:14.241Z,12.87
2018-10-09T00:12:41.211Z,12.78
2018-10-09T00:15:08.175Z,13.05
2018-10-09T00:17:35.201Z,12.85
2018-10-09T00:20:02.191Z,12.55
2018-10-09T00:22:29.194Z,12.27
2018-10-09T00:24:56.198Z,12.07
2018-10-09T00:27:23.124Z,12.06
2018-10-09T00:29:50.054Z,12.07
2018-10-09T00:32:17.201Z,12.09
2018-10-09T00:34:44.107Z,12.03
2018-10-09T00:37:11.086Z,12.27
2018-10-09T00:39:38.038Z,12.06
2018-10-09T00:42:04.926Z,12.26
2018-10-09T00:44:31.877Z,12.65
2018-10-09T00:46:59.837Z,12.48
2018-10-09T00:49:26.749Z,11.99
2018-10-09T00:51:53.716Z,11.78
2018-10-09T00:54:20.586Z,11.75
2018-10-09T00:56:47.553Z,11.78
2018-10-09T00:59:17.610Z,11.90
2018-10-09T01:01:44.570Z,12.00
2018-10-09T01:04:11.534Z,12.12
2018-10-09T01:06:38.422Z,12.16
2018-10-09T01:09:06.482Z,12.17
2018-10-09T01:11:33.365Z,12.13
2018-10-09T01:16:40.009Z,12.26
2018-10-09T01:19:06.854Z,12.04
2018-10-09T01:21:33.938Z,12.51
2018-10-09T01:24:01.801Z,12.00
2018-10-09T01:26:28.654Z,11.92
2018-10-09T01:28:55.591Z,11.83
2018-10-09T01:31:22.542Z,11.91
2018-10-09T01:33:49.513Z,11.87
2018-10-09T01:36:16.427Z,11.78
2018-10-09T01:38:43.366Z,11.28
2018-10-09T01:41:10.214Z,11.09
2018-10-09T01:43:37.158Z,10.97
2018-10-09T01:46:04.101Z,10.93
2018-10-09T01:48:31.987Z,10.97
2018-10-09T01:50:58.917Z,10.86
2018-10-09T01:53:25.897Z,10.91
2018-10-09T01:55:53.882Z,10.88
2018-10-09T01:58:20.801Z,10.95
2018-10-09T02:00:47.723Z,10.91
2018-10-09T02:03:14.661Z,10.81
2018-10-09T02:05:41.609Z,10.73
2018-10-09T02:08:08.550Z,10.83
2018-10-09T02:10:35.413Z,10.89
2018-10-09T02:13:02.354Z,10.92
2018-10-09T02:15:29.283Z,11.03
2018-10-09T02:17:56.230Z,10.79
2018-10-09T02:20:23.173Z,10.61
2018-10-09T02:22:50.115Z,10.68
2018-10-09T02:25:16.973Z,10.60
2018-10-09T02:27:43.906Z,10.59
2018-10-09T02:30:10.859Z,10.64
2018-10-09T02:32:37.794Z,10.34
2018-10-09T02:35:04.922Z,10.25
2018-10-09T02:37:31.791Z,10.37
2018-10-09T02:39:59.680Z,10.69
2018-10-09T02:42:26.608Z,10.80
2018-10-09T02:44:53.569Z,10.93
2018-10-09T02:47:20.502Z,10.96
2018-10-09T02:49:48.414Z,11.10
2018-10-09T02:52:15.314Z,11.13
2018-10-09T02:54:42.289Z,11.14
2018-10-09T02:57:09.219Z,11.15
2018-10-09T02:59:36.135Z,11.10
2018-10-09T03:02:03.089Z,10.96
2018-10-09T03:04:30.054Z,11.26
2018-10-09T03:06:56.970Z,11.18
2018-10-09T03:09:24.851Z,11.20
2018-10-09T03:11:51.781Z,11.20
2018-10-09T03:14:18.734Z,11.08
2018-10-09T03:16:45.565Z,11.01
2018-10-09T03:19:12.510Z,11.06
2018-10-09T03:21:39.370Z,11.08
2018-10-09T03:24:06.433Z,11.15
2018-10-09T03:26:33.353Z,11.10
2018-10-09T03:29:00.290Z,10.93
2018-10-09T03:31:27.245Z,10.91
2018-10-09T03:33:54.185Z,10.95
2018-10-09T03:36:21.126Z,10.91
2018-10-09T03:38:47.969Z,10.97
2018-10-09T03:41:14.922Z,11.03
2018-10-09T03:43:41.937Z,11.05
2018-10-09T03:46:08.834Z,11.10
2018-10-09T03:48:36.274Z,11.04
2018-10-09T03:51:03.226Z,10.97
2018-10-09T03:53:30.178Z,10.91
2018-10-09T03:55:57.194Z,10.91
2018-10-09T03:58:24.137Z,10.79
2018-10-09T04:00:50.998Z,10.72
2018-10-09T04:03:17.954Z,10.70
2018-10-09T04:05:44.897Z,10.67
2018-10-09T04:08:11.833Z,10.78
2018-10-09T04:10:38.766Z,10.89
2018-10-09T04:13:05.736Z,10.92
2018-10-09T04:15:33.061Z,10.85
2018-10-09T04:18:00.055Z,10.94
2018-10-09T04:20:26.954Z,10.98
2018-10-09T04:22:53.901Z,10.95
2018-10-09T04:25:20.851Z,10.82
2018-10-09T04:27:47.786Z,10.72
2018-10-09T04:30:14.741Z,10.68
2018-10-09T04:32:41.673Z,10.70
2018-10-09T04:35:08.605Z,10.70
2018-10-09T04:37:35.466Z,10.59
2018-10-09T04:40:02.411Z,10.22
2018-10-09T04:42:29.298Z,10.11
2018-10-09T04:44:56.197Z,9.99
2018-10-09T04:47:23.157Z,10.39
2018-10-09T04:49:50.126Z,10.22
2018-10-09T04:52:17.034Z,10.09
2018-10-09T04:54:43.978Z,9.95
2018-10-09T04:57:11.018Z,10.04
2018-10-09T04:59:38.026Z,9.92
2018-10-09T05:02:04.910Z,9.85
2018-10-09T05:04:31.762Z,9.81
2018-10-09T05:06:58.746Z,9.76
2018-10-09T05:09:25.655Z,9.81
2018-10-09T05:11:52.602Z,9.79
2018-10-09T05:14:19.574Z,9.74
2018-10-09T05:16:46.526Z,9.65
2018-10-09T05:19:13.438Z,9.63
2018-10-09T05:21:40.381Z,9.73
2018-10-09T05:24:07.314Z,9.74
2018-10-09T05:26:34.274Z,9.77
2018-10-09T05:29:01.299Z,9.59
2018-10-09T05:31:28.185Z,9.60
2018-10-09T05:33:55.199Z,9.71
2018-10-09T05:36:22.183Z,9.65
2018-10-09T05:38:49.093Z,9.72
2018-10-09T05:41:16.026Z,9.89
2018-10-09T05:43:42.898Z,9.96
2018-10-09T05:46:09.821Z,9.87
2018-10-09T05:48:36.879Z,9.94
2018-10-09T05:51:03.846Z,10.04
2018-10-09T05:53:30.770Z,10.19
2018-10-09T05:55:57.738Z,10.17
2018-10-09T05:58:24.663Z,10.28
2018-10-09T06:00:51.627Z,10.23
2018-10-09T06:03:18.554Z,9.97
2018-10-09T06:05:45.508Z,9.90
2018-10-09T06:08:12.811Z,9.97
2018-10-09T06:10:39.691Z,9.99
2018-10-09T06:13:06.621Z,10.73
2018-10-09T06:15:33.638Z,10.47
2018-10-09T06:18:00.533Z,10.44
2018-10-09T06:20:27.469Z,10.39
2018-10-09T06:22:54.417Z,10.54
2018-10-09T06:25:21.726Z,10.55
2018-10-09T06:27:48.654Z,10.50
2018-10-09T06:30:15.550Z,10.52
2018-10-09T06:32:42.498Z,10.56
2018-10-09T06:35:09.486Z,11.19
2018-10-09T06:37:36.390Z,10.75
2018-10-09T06:40:03.393Z,10.54
2018-10-09T06:42:30.297Z,10.66
2018-10-09T06:44:57.227Z,10.66
2018-10-09T06:47:24.252Z,10.52
2018-10-09T06:49:51.209Z,10.62
2018-10-09T06:52:19.594Z,10.76
2018-10-09T06:54:46.614Z,11.05
2018-10-09T06:57:13.474Z,11.10
2018-10-09T06:59:40.459Z,11.22
2018-10-09T07:02:07.360Z,11.45
2018-10-09T07:04:34.290Z,11.69
2018-10-09T07:07:01.219Z,11.78
2018-10-09T07:09:28.222Z,11.98
2018-10-09T07:11:55.115Z,12.12
2018-10-09T07:14:22.055Z,12.31
2018-10-09T07:16:49.042Z,12.41
2018-10-09T07:19:15.982Z,12.53
2018-10-09T07:21:42.954Z,12.67
2018-10-09T07:24:09.835Z,12.79
2018-10-09T07:26:36.770Z,12.78
2018-10-09T07:29:03.631Z,12.96
2018-10-09T07:31:30.600Z,13.12
2018-10-09T07:33:57.512Z,13.18
2018-10-09T07:36:24.463Z,13.19
2018-10-09T07:38:51.411Z,13.32
2018-10-09T07:41:18.338Z,13.44
2018-10-09T07:43:45.222Z,13.54
2018-10-09T07:46:12.061Z,13.68
2018-10-09T07:48:39.098Z,13.64
2018-10-09T07:51:06.215Z,13.66
2018-10-09T07:53:33.183Z,13.91
2018-10-09T07:56:00.116Z,13.99
2018-10-09T07:58:27.075Z,14.11
2018-10-09T08:00:53.900Z,14.31
2018-10-09T08:03:20.781Z,14.29
2018-10-09T08:05:47.889Z,14.10
2018-10-09T08:08:15.139Z,14.31
2018-10-09T08:10:42.039Z,14.33
2018-10-09T08:13:08.950Z,14.48
2018-10-09T08:15:35.885Z,14.57
2018-10-09T08:18:03.770Z,14.55
2018-10-09T08:20:30.691Z,14.61
2018-10-09T08:22:57.683Z,14.60
2018-10-09T08:25:24.596Z,14.59
2018-10-09T08:27:51.565Z,14.59
2018-10-09T08:30:18.470Z,14.59
2018-10-09T08:32:45.491Z,14.72
2018-10-09T08:35:12.362Z,14.83
2018-10-09T08:37:39.313Z,15.13
2018-10-09T08:40:07.276Z,15.30
2018-10-09T08:42:34.178Z,15.08
2018-10-09T08:45:01.089Z,15.41
2018-10-09T08:47:28.008Z,15.31
2018-10-09T08:49:54.851Z,15.47
2018-10-09T08:52:21.827Z,15.60
2018-10-09T08:54:48.767Z,15.71
2018-10-09T08:57:16.174Z,16.15
2018-10-09T08:59:43.058Z,16.39
2018-10-09T09:02:11.007Z,16.77
2018-10-09T09:04:37.967Z,16.68
2018-10-09T09:07:05.450Z,16.73
2018-10-09T09:09:32.362Z,17.12
2018-10-09T09:11:59.298Z,17.22
2018-10-09T09:14:26.242Z,16.95
2018-10-09T09:16:53.191Z,17.45
2018-10-09T09:19:20.139Z,17.56
2018-10-09T09:21:47.135Z,17.72
2018-10-09T09:24:14.031Z,17.82
2018-10-09T09:26:41.366Z,18.52
2018-10-09T09:29:08.225Z,18.36
2018-10-09T09:31:35.223Z,18.47
2018-10-09T09:34:02.115Z,18.63
2018-10-09T09:36:29.668Z,18.66
2018-10-09T09:38:57.532Z,18.85
2018-10-09T09:41:24.394Z,19.15
2018-10-09T09:43:51.322Z,19.03
2018-10-09T09:46:18.555Z,18.96
2018-10-09T09:48:45.322Z,18.69
2018-10-09T09:51:12.267Z,18.58
2018-10-09T09:53:39.218Z,18.55
2018-10-09T09:56:06.215Z,18.40
2018-10-09T09:58:33.320Z,18.61
2018-10-09T10:01:05.759Z,18.96
2018-10-09T10:03:32.633Z,19.02
2018-10-09T10:05:59.575Z,19.37
2018-10-09T10:08:26.513Z,19.90
2018-10-09T10:10:53.459Z,19.19
2018-10-09T10:13:20.391Z,19.11
2018-10-09T10:15:47.418Z,19.70
2018-10-09T10:18:16.007Z,20.01
2018-10-09T10:20:42.889Z,19.70
2018-10-09T10:23:10.739Z,19.73
2018-10-09T10:25:38.611Z,20.28
2018-10-09T10:28:05.892Z,19.89
2018-10-09T10:30:32.806Z,19.99
2018-10-09T10:32:59.743Z,20.09
2018-10-09T10:35:26.681Z,20.29
2018-10-09T10:37:53.839Z,20.20
2018-10-09T10:40:20.782Z,20.49
2018-10-09T10:42:47.728Z,20.88
2018-10-09T10:45:14.679Z,20.94
2018-10-09T10:47:41.672Z,20.90
2018-10-09T10:50:08.563Z,20.93
2018-10-09T10:52:35.508Z,21.05
2018-10-09T10:55:02.461Z,21.10
2018-10-09T10:57:29.294Z,21.51
2018-10-09T10:59:56.266Z,20.98
2018-10-09T11:02:23.182Z,20.81
2018-10-09T11:04:50.143Z,20.89
2018-10-09T11:07:17.083Z,21.05
2018-10-09T11:09:44.014Z,20.97
2018-10-09T11:12:10.862Z,21.05
2018-10-09T11:14:37.876Z,20.83
2018-10-09T11:17:04.767Z,20.63
2018-10-09T11:19:31.690Z,21.09
2018-10-09T11:22:00.591Z,21.28
2018-10-09T11:24:27.547Z,21.55
2018-10-09T11:26:54.479Z,21.36
2018-10-09T11:29:21.472Z,21.62
2018-10-09T11:31:48.367Z,21.58
2018-10-09T11:34:15.222Z,21.47
2018-10-09T11:36:42.150Z,21.26
2018-10-09T11:39:09.391Z,21.10
2018-10-09T11:41:36.243Z,21.36
2018-10-09T11:44:03.091Z,21.75
2018-10-09T11:46:30.957Z,21.67
2018-10-09T11:48:57.907Z,21.58
2018-10-09T11:51:24.839Z,21.58
2018-10-09T11:53:52.737Z,21.30
2018-10-09T11:56:19.667Z,21.19
2018-10-09T11:58:46.799Z,20.92
2018-10-09T12:01:13.558Z,21.17
2018-10-09T12:03:40.508Z,21.45
2018-10-09T12:06:07.447Z,21.58
2018-10-09T12:08:34.387Z,21.32
2018-10-09T12:11:01.647Z,21.14
2018-10-09T12:13:28.579Z,20.80
2018-10-09T12:15:55.613Z,20.62
2018-10-09T12:18:22.470Z,20.53
2018-10-09T12:20:49.423Z,20.60
2018-10-09T12:23:16.446Z,20.73
2018-10-09T12:25:43.323Z,20.61
2018-10-09T12:28:10.266Z,20.62
2018-10-09T12:30:37.199Z,20.74
2018-10-09T12:33:04.243Z,20.73
2018-10-09T12:35:31.087Z,20.69
2018-10-09T12:37:58.027Z,20.76
2018-10-09T12:40:24.868Z,20.63
2018-10-09T12:42:51.741Z,20.61
2018-10-09T12:45:18.858Z,20.50
2018-10-09T12:47:45.723Z,20.37
2018-10-09T12:50:12.659Z,20.47
2018-10-09T12:52:39.595Z,20.56
2018-10-09T12:55:07.075Z,20.70
2018-10-09T12:57:34.006Z,20.58
2018-10-09T13:00:00.959Z,20.61
2018-10-09T13:02:27.900Z,20.58
2018-10-09T13:04:54.846Z,20.69
2018-10-09T13:07:21.809Z,20.50
2018-10-09T13:09:48.747Z,20.56
2018-10-09T13:12:15.675Z,20.66
2018-10-09T13:14:42.635Z,20.67
2018-10-09T13:17:09.635Z,20.66
2018-10-09T13:19:36.510Z,20.77
2018-10-09T13:22:03.769Z,21.08
2018-10-09T13:24:30.403Z,21.14
2018-10-09T13:26:57.355Z,21.09
2018-10-09T13:29:24.295Z,21.13
2018-10-09T13:31:51.230Z,21.20
2018-10-09T13:34:18.799Z,21.27
2018-10-09T13:36:45.675Z,21.43
2018-10-09T13:39:12.582Z,21.29
2018-10-09T13:41:39.524Z,21.44
2018-10-09T13:44:06.798Z,21.51
2018-10-09T13:46:33.624Z,21.68
2018-10-09T13:49:00.563Z,21.85
2018-10-09T13:51:27.514Z,21.59
2018-10-09T13:53:54.446Z,21.56
2018-10-09T13:56:21.390Z,21.62
2018-10-09T13:58:48.355Z,21.60
2018-10-09T14:01:15.308Z,21.46
2018-10-09T14:03:42.239Z,21.46
2018-10-09T14:06:09.222Z,21.41
2018-10-09T14:08:36.179Z,21.38
2018-10-09T14:11:03.079Z,21.36
2018-10-09T14:13:30.025Z,21.52
2018-10-09T14:15:56.966Z,21.52
2018-10-09T14:18:23.922Z,21.48
2018-10-09T14:20:50.871Z,21.55
2018-10-09T14:23:17.887Z,21.55
2018-10-09T14:25:44.739Z,21.66
2018-10-09T14:28:11.686Z,21.64
2018-10-09T14:30:38.624Z,21.71
2018-10-09T14:33:05.590Z,21.88
2018-10-09T14:35:32.523Z,21.85
2018-10-09T14:37:59.451Z,21.85
2018-10-09T14:40:26.399Z,22.12
2018-10-09T14:42:53.347Z,22.02
2018-10-09T14:45:20.435Z,21.91
2018-10-09T14:47:47.342Z,21.89
2018-10-09T14:50:14.278Z,21.83
2018-10-09T14:52:41.226Z,21.76
2018-10-09T14:55:08.178Z,21.72
2018-10-09T14:57:35.160Z,21.80
2018-10-09T15:00:02.128Z,21.84
2018-10-09T15:02:29.019Z,21.86
2018-10-09T15:04:55.951Z,21.74
2018-10-09T15:07:22.909Z,21.80
2018-10-09T15:09:49.848Z,21.75
2018-10-09T15:12:16.798Z,21.80
2018-10-09T15:14:43.781Z,21.76
2018-10-09T15:17:10.738Z,21.59
2018-10-09T15:19:37.623Z,21.58
2018-10-09T15:22:04.479Z,21.56
2018-10-09T15:24:31.431Z,21.62
2018-10-09T15:26:58.375Z,21.62
2018-10-09T15:29:25.326Z,21.40
2018-10-09T15:31:52.257Z,21.42
2018-10-09T15:34:19.199Z,21.43
2018-10-09T15:36:46.297Z,21.38
2018-10-09T15:39:13.210Z,21.26
2018-10-09T15:41:40.399Z,21.23
2018-10-09T15:44:07.394Z,21.13
2018-10-09T15:46:34.428Z,21.18
2018-10-09T15:51:28.923Z,21.10
2018-10-09T15:53:58.099Z,21.07
2018-10-09T15:56:25.042Z,20.93
2018-10-09T15:59:45.363Z,20.74
2018-10-09T16:02:12.369Z,20.51
2018-10-09T16:04:39.275Z,20.05
2018-10-09T16:07:06.392Z,19.77
2018-10-09T16:09:33.311Z,19.62
2018-10-09T16:12:00.224Z,19.45
2018-10-09T16:14:27.138Z,19.44
2018-10-09T16:16:54.198Z,19.36
2018-10-09T16:19:21.155Z,19.26
2018-10-09T16:21:48.144Z,19.15
2018-10-09T16:24:15.036Z,19.02
2018-10-09T16:26:41.979Z,18.97
2018-10-09T16:29:09.124Z,18.87
2018-10-09T16:31:36.092Z,18.83
2018-10-09T16:34:03.015Z,18.75
2018-10-09T16:36:29.954Z,18.61
2018-10-09T16:38:56.968Z,18.48
2018-10-09T16:41:23.842Z,18.47
2018-10-09T16:43:50.829Z,18.50
2018-10-09T16:46:17.850Z,18.43
2018-10-09T16:48:44.783Z,18.51
2018-10-09T16:51:11.719Z,18.34
2018-10-09T16:53:38.679Z,18.22
2018-10-09T16:56:05.646Z,18.23
2018-10-09T16:58:32.567Z,18.06
2018-10-09T17:00:59.507Z,17.96
2018-10-09T17:03:26.454Z,17.75
2018-10-09T17:05:53.404Z,17.54
2018-10-09T17:08:21.271Z,17.45
2018-10-09T17:10:48.208Z,17.25
2018-10-09T17:13:15.184Z,17.05
2018-10-09T17:15:42.211Z,17.09
2018-10-09T17:18:09.050Z,17.06
2018-10-09T17:20:35.988Z,17.03
2018-10-09T17:23:02.975Z,16.95
2018-10-09T17:25:29.886Z,16.77
2018-10-09T17:27:56.851Z,16.79
2018-10-09T17:30:23.839Z,16.75
2018-10-09T17:32:50.727Z,16.66
2018-10-09T17:35:17.745Z,16.58
2018-10-09T17:37:50.796Z,16.63
2018-10-09T17:40:17.696Z,16.49
2018-10-09T17:42:44.647Z,16.43
2018-10-09T17:45:11.590Z,16.30
2018-10-09T17:47:38.777Z,16.31
2018-10-09T17:50:06.127Z,16.39
2018-10-09T17:52:33.083Z,16.30
2018-10-09T17:54:59.983Z,16.51
2018-10-09T17:57:26.923Z,16.35
2018-10-09T17:59:53.865Z,16.25
2018-10-09T18:02:20.810Z,16.25
2018-10-09T18:04:47.753Z,16.31
2018-10-09T18:07:14.694Z,16.35
2018-10-09T18:09:41.661Z,16.46
2018-10-09T18:12:08.633Z,16.50
2018-10-09T18:14:35.577Z,16.52
2018-10-09T18:17:02.478Z,16.36
2018-10-09T18:19:29.474Z,16.35
2018-10-09T18:21:56.375Z,16.44
2018-10-09T18:24:23.306Z,16.59
2018-10-09T18:26:50.327Z,16.57
2018-10-09T18:29:17.267Z,16.57
2018-10-09T18:31:44.142Z,16.33
2018-10-09T18:34:11.099Z,16.38
2018-10-09T18:36:38.134Z,16.29
2018-10-09T18:39:09.190Z,16.15
2018-10-09T18:41:36.337Z,15.99
2018-10-09T18:44:03.095Z,16.07
2018-10-09T18:46:30.023Z,16.06
2018-10-09T18:48:56.954Z,15.96
2018-10-09T18:51:23.972Z,15.75
2018-10-09T18:53:50.846Z,15.78
2018-10-09T18:56:17.795Z,15.89
2018-10-09T18:58:44.804Z,15.91
2018-10-09T19:01:11.700Z,15.97
2018-10-09T19:03:38.639Z,16.02
2018-10-09T19:06:05.570Z,16.00
2018-10-09T19:08:32.518Z,15.99
2018-10-09T19:10:59.514Z,16.01
2018-10-09T19:13:26.411Z,16.00
2018-10-09T19:15:53.354Z,15.99
2018-10-09T19:18:20.305Z,15.93
2018-10-09T19:20:47.251Z,15.84
2018-10-09T19:23:14.191Z,15.83
2018-10-09T19:25:41.145Z,15.89
2018-10-09T19:28:08.487Z,15.85
2018-10-09T19:30:35.427Z,15.83
2018-10-09T19:33:02.391Z,15.87
2018-10-09T19:35:29.363Z,16.00
2018-10-09T19:37:56.287Z,15.99
2018-10-09T19:40:23.215Z,16.00
2018-10-09T19:42:50.155Z,16.03
2018-10-09T19:45:17.106Z,16.07
2018-10-09T19:47:44.051Z,15.96
2018-10-09T19:50:10.995Z,15.95
2018-10-09T19:52:37.947Z,15.85
2018-10-09T19:55:04.970Z,15.86
2018-10-09T19:57:31.942Z,15.84
2018-10-09T19:59:58.878Z,15.73
2018-10-09T20:02:25.827Z,15.60
2018-10-09T20:04:52.758Z,15.68
2018-10-09T20:07:19.615Z,15.73
2018-10-09T20:09:46.543Z,15.65
2018-10-09T20:12:13.495Z,15.45
2018-10-09T20:14:40.453Z,15.07
2018-10-09T20:17:07.391Z,14.90
2018-10-09T20:19:34.333Z,15.10
2018-10-09T20:22:01.272Z,15.11
2018-10-09T20:24:28.237Z,15.23
2018-10-09T20:26:55.166Z,15.17
2018-10-09T20:29:22.111Z,14.96
2018-10-09T20:31:49.043Z,14.83
2018-10-09T20:34:15.894Z,14.84
2018-10-09T20:36:42.839Z,14.90
2018-10-09T20:39:09.778Z,14.77
2018-10-09T20:41:36.731Z,14.74
2018-10-09T20:44:03.674Z,14.73
2018-10-09T20:46:30.618Z,14.79
2018-10-09T20:48:57.563Z,14.87
2018-10-09T20:51:24.515Z,14.83
2018-10-09T20:53:51.451Z,14.68
2018-10-09T20:56:18.391Z,14.70
2018-10-09T20:58:45.243Z,14.66
2018-10-09T21:01:12.182Z,14.69
2018-10-09T21:03:39.047Z,14.50
2018-10-09T21:06:06.036Z,14.40
2018-10-09T21:08:32.910Z,14.14
2018-10-09T21:10:59.766Z,13.99
2018-10-09T21:13:26.706Z,13.89
2018-10-09T21:15:53.658Z,13.68
2018-10-09T21:18:20.598Z,13.36
2018-10-09T21:20:47.546Z,13.19
2018-10-09T21:23:14.482Z,13.22
2018-10-09T21:25:41.427Z,13.01
2018-10-09T21:28:08.572Z,12.95
2018-10-09T21:30:35.523Z,13.13
2018-10-09T21:33:02.490Z,13.27
2018-10-09T21:35:29.415Z,13.41
2018-10-09T21:37:56.403Z,13.62
2018-10-09T21:40:23.302Z,13.81
2018-10-09T21:42:50.274Z,14.05
2018-10-09T21:45:17.207Z,14.01
2018-10-09T21:47:50.222Z,14.00
2018-10-09T21:50:17.134Z,13.98
2018-10-09T21:52:44.092Z,13.93
2018-10-09T21:55:11.014Z,13.87
2018-10-09T21:57:37.979Z,13.86
2018-10-09T22:00:04.902Z,13.99
2018-10-09T22:02:31.870Z,14.29
2018-10-09T22:04:58.804Z,14.13
2018-10-09T22:07:25.734Z,14.15
2018-10-09T22:09:52.705Z,14.07
2018-10-09T22:12:19.674Z,14.03
2018-10-09T22:14:46.587Z,14.16
2018-10-09T22:17:13.514Z,14.23
2018-10-09T22:19:40.590Z,14.26
2018-10-09T22:22:07.520Z,14.21
2018-10-09T22:24:34.603Z,14.34
2018-10-09T22:27:01.415Z,14.23
2018-10-09T22:29:28.370Z,14.25
2018-10-09T22:31:55.305Z,14.20
2018-10-09T22:34:22.237Z,14.12
2018-10-09T22:36:49.176Z,13.92
2018-10-09T22:39:16.023Z,13.91
2018-10-09T22:41:42.862Z,13.83
2018-10-09T22:44:09.823Z,13.69
2018-10-09T22:46:36.755Z,13.54
2018-10-09T22:49:03.703Z,13.45
2018-10-09T22:51:30.648Z,13.53
2018-10-09T22:53:57.591Z,13.62
2018-10-09T22:56:24.535Z,13.76
2018-10-09T22:58:51.483Z,13.83
2018-10-09T23:01:18.427Z,13.81
2018-10-09T23:03:45.387Z,13.83
2018-10-09T23:06:12.306Z,13.90
2018-10-09T23:08:39.291Z,13.88
2018-10-09T23:11:06.806Z,13.78
2018-10-09T23:13:33.650Z,13.73
2018-10-09T23:16:00.494Z,13.75
2018-10-09T23:18:27.567Z,13.76
2018-10-09T23:20:54.486Z,13.76
2018-10-09T23:23:21.335Z,13.79
2018-10-09T23:25:48.310Z,13.85
2018-10-09T23:28:15.217Z,13.84
2018-10-09T23:30:42.075Z,13.73
2018-10-09T23:33:09.020Z,13.68
2018-10-09T23:35:35.951Z,13.64
2018-10-09T23:38:02.794Z,13.54
2018-10-09T23:40:29.646Z,13.39
2018-10-09T23:42:56.625Z,13.28
2018-10-09T23:45:23.539Z,13.14
2018-10-09T23:48:01.426Z,12.88
2018-10-09T23:50:28.295Z,12.81
2018-10-09T23:52:55.218Z,12.79
2018-10-09T23:55:22.175Z,12.70
2018-10-09T23:57:49.110Z,12.55
